Time;durP1;ratioP1;P1;durP2;ratioP2;P2;SDS_P1;SDS_P2;PMS_P1;PMS_P2;Temp;Humidity;BMP_temperature;BMP_pressure;BME280_temperature;BME280_humidity;BME280_pressure;Samples;Min_cycle;Max_cycle;Signal;HPM_P1;HPM_P2
2022/03/09 00:00:39;;;;;;;6.97;3.45;;;3.30;99.90;;;;;;5073038;28;20043;-69
2022/03/09 00:03:05;;;;;;;8.25;4.57;;;2.70;99.90;;;;;;5069697;28;20047;-71
2022/03/09 00:05:31;;;;;;;8.50;4.43;;;2.70;99.90;;;;;;5088232;28;20228;-68
2022/03/09 00:07:57;;;;;;;9.80;5.72;;;2.60;99.90;;;;;;5070589;28;20115;-69
2022/03/09 00:10:23;;;;;;;10.23;5.20;;;2.60;99.90;;;;;;5061066;28;20162;-68
2022/03/09 00:12:49;;;;;;;9.18;6.20;;;2.50;99.90;;;;;;5064898;28;20047;-69
2022/03/09 00:15:15;;;;;;;10.30;6.30;;;2.50;99.90;;;;;;5095107;28;20044;-70
2022/03/09 00:17:41;;;;;;;11.18;6.25;;;2.40;99.90;;;;;;5057966;28;20052;-69
2022/03/09 00:20:07;;;;;;;13.30;6.80;;;2.40;99.90;;;;;;5098652;28;20123;-70
2022/03/09 00:22:33;;;;;;;11.85;5.47;;;2.40;99.90;;;;;;5100730;28;20040;-71
2022/03/09 00:24:59;;;;;;;11.63;6.38;;;2.30;99.90;;;;;;5096673;28;20035;-68
2022/03/09 00:27:25;;;;;;;11.80;6.50;;;2.20;99.90;;;;;;5107792;28;20071;-71
2022/03/09 00:29:50;;;;;;;11.55;6.63;;;2.20;99.90;;;;;;5106889;28;20463;-68
2022/03/09 00:32:16;;;;;;;10.73;6.72;;;2.20;99.90;;;;;;5097669;28;20481;-68
2022/03/09 00:34:42;;;;;;;8.68;4.85;;;2.20;99.90;;;;;;5092648;28;20043;-69
2022/03/09 00:37:08;;;;;;;8.32;5.18;;;2.20;99.90;;;;;;5099575;28;20048;-69
2022/03/09 00:39:34;;;;;;;6.57;3.80;;;2.10;99.90;;;;;;5067848;28;20035;-68
2022/03/09 00:42:00;;;;;;;10.02;4.20;;;2.10;99.90;;;;;;5103020;28;20035;-69
2022/03/09 00:44:26;;;;;;;7.22;3.72;;;2.10;99.90;;;;;;5091550;28;20127;-68
2022/03/09 00:46:52;;;;;;;10.07;3.70;;;2.00;99.90;;;;;;5064338;28;20047;-68
2022/03/09 00:49:18;;;;;;;6.70;3.75;;;2.00;99.90;;;;;;5096313;28;20048;-70
2022/03/09 00:51:44;;;;;;;5.30;3.33;;;2.00;99.90;;;;;;5085598;28;20035;-68
2022/03/09 00:54:09;;;;;;;4.80;2.95;;;1.90;99.90;;;;;;5083694;28;20041;-69
2022/03/09 00:56:35;;;;;;;6.00;3.45;;;1.80;99.90;;;;;;5078018;28;20122;-68
2022/03/09 00:59:01;;;;;;;6.38;3.70;;;1.80;99.90;;;;;;5079019;28;20130;-68
2022/03/09 01:01:27;;;;;;;7.13;3.58;;;1.90;99.90;;;;;;5103398;28;20097;-68
2022/03/09 01:03:53;;;;;;;6.97;3.40;;;1.80;99.90;;;;;;5089993;28;20882;-69
2022/03/09 01:06:19;;;;;;;7.90;3.55;;;1.80;99.90;;;;;;5070524;28;20044;-70
2022/03/09 01:08:44;;;;;;;6.85;3.75;;;1.80;99.90;;;;;;5078754;28;20059;-68
2022/03/09 01:11:10;;;;;;;5.47;3.83;;;1.70;99.90;;;;;;5089098;28;20041;-69
2022/03/09 01:13:36;;;;;;;6.45;4.03;;;1.60;99.90;;;;;;5082934;28;20096;-69
2022/03/09 01:16:02;;;;;;;7.32;4.32;;;1.60;99.90;;;;;;5065714;28;20127;-69
2022/03/09 01:18:28;;;;;;;6.72;4.13;;;1.60;99.90;;;;;;5085832;28;20047;-68
2022/03/09 01:20:54;;;;;;;8.65;4.30;;;1.60;99.90;;;;;;5115017;27;20387;-70
2022/03/09 01:23:20;;;;;;;9.10;4.78;;;1.60;99.90;;;;;;5066882;28;20118;-69
2022/03/09 01:25:46;;;;;;;8.80;4.45;;;1.60;99.90;;;;;;5102026;28;20763;-68
2022/03/09 01:28:12;;;;;;;8.07;4.20;;;1.60;99.90;;;;;;5105574;28;20119;-68
2022/03/09 01:30:38;;;;;;;7.78;4.30;;;1.50;99.90;;;;;;5063086;28;20043;-68
2022/03/09 01:33:04;;;;;;;8.32;4.03;;;1.80;99.90;;;;;;5090953;28;20039;-70
2022/03/09 01:35:30;;;;;;;6.82;4.05;;;1.50;99.90;;;;;;5080791;28;20039;-70
2022/03/09 01:37:56;;;;;;;9.90;4.10;;;1.50;99.90;;;;;;5060786;28;20032;-69
2022/03/09 01:40:22;;;;;;;7.45;3.70;;;1.50;99.90;;;;;;5086283;28;20117;-68
2022/03/09 01:42:48;;;;;;;7.30;4.57;;;1.50;99.90;;;;;;5079484;28;20097;-68
2022/03/09 01:45:14;;;;;;;8.18;4.28;;;1.40;99.90;;;;;;5079845;28;20127;-68
2022/03/09 01:47:40;;;;;;;9.48;4.07;;;2.00;99.90;;;;;;5081224;28;20460;-69
2022/03/09 01:50:11;;;;;;;7.90;4.60;;;1.30;99.90;;;;;;5086463;28;20039;-68
2022/03/09 01:52:40;;;;;;;9.13;4.13;;;1.30;99.90;;;;;;5101310;28;20075;-68
2022/03/09 01:55:06;;;;;;;7.53;4.13;;;1.30;99.90;;;;;;5079828;28;20418;-69
2022/03/09 01:57:32;;;;;;;7.95;4.18;;;1.30;99.90;;;;;;5097838;28;20074;-69
2022/03/09 01:59:58;;;;;;;7.35;4.18;;;1.20;99.90;;;;;;5077628;28;20685;-69
2022/03/09 02:02:24;;;;;;;8.52;4.32;;;1.20;99.90;;;;;;5076534;28;20123;-72
2022/03/09 02:04:50;;;;;;;7.10;4.10;;;1.20;99.90;;;;;;5087500;28;20429;-68
2022/03/09 02:07:17;;;;;;;8.15;4.10;;;1.20;99.90;;;;;;5094099;28;20044;-69
2022/03/09 02:09:44;;;;;;;8.38;4.40;;;1.20;99.90;;;;;;5064806;28;20048;-68
2022/03/09 02:12:18;;;;;;;6.85;3.97;;;1.20;99.90;;;;;;5096920;28;20051;-71
2022/03/09 02:14:50;;;;;;;7.45;4.30;;;1.20;99.90;;;;;;5105601;28;20051;-69
2022/03/09 02:17:17;;;;;;;;;;;1.20;99.90;;;;;;5098991;28;20039;-70
2022/03/09 02:19:47;;;;;;;8.27;4.47;;;1.20;99.90;;;;;;5093770;28;19920;-68
2022/03/09 02:22:19;;;;;;;6.63;4.13;;;1.10;99.90;;;;;;5102974;28;20049;-68
2022/03/09 02:24:51;;;;;;;8.07;3.88;;;1.20;99.90;;;;;;5079267;28;20079;-68
2022/03/09 02:27:20;;;;;;;8.85;4.03;;;1.00;99.90;;;;;;5098839;28;20118;-68
2022/03/09 02:29:47;;;;;;;9.75;4.50;;;1.10;99.90;;;;;;5088898;28;20043;-68
2022/03/09 02:32:13;;;;;;;15.27;5.43;;;1.10;99.90;;;;;;5071296;28;20539;-69
2022/03/09 02:34:39;;;;;;;8.40;4.47;;;1.10;99.90;;;;;;5060197;28;20086;-68
2022/03/09 02:37:05;;;;;;;6.53;4.55;;;1.10;99.90;;;;;;5101469;28;20052;-67
2022/03/09 02:39:31;;;;;;;10.27;4.57;;;1.10;99.90;;;;;;5099100;28;20051;-68
2022/03/09 02:41:57;;;;;;;9.35;4.15;;;1.10;99.90;;;;;;5101887;28;20039;-70
2022/03/09 02:44:23;;;;;;;9.35;4.85;;;1.00;99.90;;;;;;5095866;28;20040;-68
2022/03/09 02:46:49;;;;;;;8.05;4.43;;;1.00;99.90;;;;;;5062759;28;20088;-68
2022/03/09 02:49:15;;;;;;;10.45;4.55;;;1.00;99.90;;;;;;5097555;28;20054;-68
2022/03/09 02:51:41;;;;;;;8.75;4.90;;;1.00;99.90;;;;;;5066280;28;20408;-68
2022/03/09 02:54:07;;;;;;;9.32;4.55;;;0.90;99.90;;;;;;5092567;28;20050;-68
2022/03/09 02:56:33;;;;;;;10.65;4.68;;;1.00;99.90;;;;;;5099866;28;20032;-70
2022/03/09 02:58:59;;;;;;;9.63;4.80;;;1.00;99.90;;;;;;5086851;28;20513;-69
2022/03/09 03:01:25;;;;;;;8.63;4.50;;;1.00;99.90;;;;;;5096565;28;20032;-69
2022/03/09 03:03:51;;;;;;;9.43;4.32;;;1.00;99.90;;;;;;5106947;28;20035;-68
2022/03/09 03:06:17;;;;;;;8.82;4.80;;;1.00;99.90;;;;;;5076225;28;20039;-68
2022/03/09 03:08:43;;;;;;;10.20;4.78;;;0.90;99.90;;;;;;5102697;28;20119;-70
2022/03/09 03:11:10;;;;;;;7.88;4.53;;;0.90;99.90;;;;;;5080337;28;20135;-68
2022/03/09 03:13:39;;;;;;;7.97;4.50;;;0.90;99.90;;;;;;5066127;28;20449;-68
2022/03/09 03:16:06;;;;;;;9.50;5.25;;;0.80;99.90;;;;;;5094487;28;20612;-68
2022/03/09 03:18:32;;;;;;;11.80;5.28;;;0.80;99.90;;;;;;5065801;28;20094;-70
2022/03/09 03:20:58;;;;;;;9.68;5.03;;;0.70;99.90;;;;;;5091765;28;20040;-68
2022/03/09 03:23:26;;;;;;;9.80;5.07;;;0.80;99.90;;;;;;5090920;28;20055;-68
2022/03/09 03:25:53;;;;;;;9.02;4.88;;;0.70;99.90;;;;;;5093353;28;20464;-69
2022/03/09 03:28:19;;;;;;;9.15;4.55;;;0.70;99.90;;;;;;5097673;28;20051;-68
2022/03/09 03:30:46;;;;;;;9.85;4.90;;;0.60;99.90;;;;;;5085009;28;20050;-68
2022/03/09 03:33:13;;;;;;;8.32;4.60;;;0.80;99.90;;;;;;5090554;28;20035;-68
2022/03/09 03:35:39;;;;;;;9.45;4.95;;;0.60;99.90;;;;;;5078394;28;20032;-69
2022/03/09 03:38:05;;;;;;;9.68;4.68;;;0.60;99.90;;;;;;5085344;28;20043;-68
2022/03/09 03:40:31;;;;;;;11.75;5.15;;;0.60;99.90;;;;;;5084061;28;20464;-68
2022/03/09 03:42:57;;;;;;;9.65;4.68;;;0.50;99.90;;;;;;5083688;28;20089;-68
2022/03/09 03:45:23;;;;;;;10.30;4.70;;;0.50;99.90;;;;;;5093206;28;20046;-68
2022/03/09 03:47:49;;;;;;;10.15;5.35;;;0.50;99.90;;;;;;5079546;28;20048;-69
2022/03/09 03:50:15;;;;;;;10.98;5.43;;;0.50;99.90;;;;;;5079104;28;20145;-68
2022/03/09 03:52:41;;;;;;;11.02;5.13;;;0.60;99.90;;;;;;5089726;28;20067;-68
2022/03/09 03:55:07;;;;;;;10.55;5.72;;;0.70;99.90;;;;;;5104039;28;20040;-70
2022/03/09 03:57:33;;;;;;;11.05;5.57;;;0.60;99.90;;;;;;5097234;28;20422;-70
2022/03/09 03:59:59;;;;;;;9.20;5.32;;;0.70;99.90;;;;;;5064136;28;20055;-70
2022/03/09 04:02:25;;;;;;;9.18;5.15;;;1.60;99.90;;;;;;5064032;28;20044;-70
2022/03/09 04:04:51;;;;;;;10.80;5.57;;;0.70;99.90;;;;;;5104074;28;20127;-68
2022/03/09 04:07:18;;;;;;;12.07;5.35;;;0.70;99.90;;;;;;5092439;28;20607;-68
2022/03/09 04:09:44;;;;;;;10.35;4.88;;;0.70;99.90;;;;;;5090782;28;20044;-69
2022/03/09 04:12:10;;;;;;;9.98;5.50;;;0.70;99.90;;;;;;5083106;28;20093;-68
2022/03/09 04:14:36;;;;;;;11.82;5.38;;;0.70;99.90;;;;;;5091779;28;20101;-68
2022/03/09 04:17:02;;;;;;;9.43;5.43;;;0.60;99.90;;;;;;5091379;28;20035;-68
2022/03/09 04:19:28;;;;;;;9.32;5.13;;;0.60;99.90;;;;;;5084427;28;20391;-69
2022/03/09 04:21:54;;;;;;;8.65;5.22;;;0.60;99.90;;;;;;5060781;28;20044;-68
2022/03/09 04:24:20;;;;;;;9.63;5.20;;;0.60;99.90;;;;;;5104044;28;20040;-69
2022/03/09 04:26:46;;;;;;;10.25;5.30;;;0.60;99.90;;;;;;5065105;28;20047;-69
2022/03/09 04:29:11;;;;;;;13.18;5.93;;;0.50;99.90;;;;;;5083752;28;20054;-68
2022/03/09 04:31:38;;;;;;;9.00;5.38;;;0.40;99.90;;;;;;5085677;28;20063;-68
2022/03/09 04:34:04;;;;;;;11.43;5.40;;;0.40;99.90;;;;;;5085779;28;20036;-68
2022/03/09 04:36:30;;;;;;;12.07;5.75;;;0.30;99.90;;;;;;5087707;28;20368;-69
2022/03/09 04:38:56;;;;;;;10.77;5.30;;;0.20;99.90;;;;;;5100603;28;20104;-69
2022/03/09 04:41:22;;;;;;;9.48;5.13;;;0.20;99.90;;;;;;5105503;28;20044;-69
2022/03/09 04:43:48;;;;;;;10.60;5.30;;;0.10;99.90;;;;;;5082397;28;20035;-68
2022/03/09 04:46:14;;;;;;;11.25;5.30;;;0.00;99.90;;;;;;5083233;28;20035;-68
2022/03/09 04:48:40;;;;;;;11.57;5.65;;;0.00;99.90;;;;;;5103459;28;20200;-68
2022/03/09 04:51:06;;;;;;;10.68;5.78;;;0.00;99.90;;;;;;5080858;28;20544;-69
2022/03/09 04:53:32;;;;;;;12.27;6.35;;;0.00;99.90;;;;;;5107947;28;20048;-68
2022/03/09 04:55:58;;;;;;;12.48;5.75;;;0.00;99.90;;;;;;5107882;28;20112;-68
2022/03/09 04:58:25;;;;;;;9.93;5.82;;;-0.10;99.90;;;;;;5069822;28;20077;-71
2022/03/09 05:00:52;;;;;;;11.93;5.85;;;-0.10;99.90;;;;;;5097100;28;20044;-69
2022/03/09 05:03:18;;;;;;;11.65;5.70;;;0.00;99.90;;;;;;5083618;28;20496;-68
2022/03/09 05:05:44;;;;;;;10.77;5.85;;;0.00;99.90;;;;;;5099562;28;20071;-68
2022/03/09 05:08:10;;;;;;;11.95;5.70;;;0.00;99.90;;;;;;5090767;28;20138;-70
2022/03/09 05:10:37;;;;;;;13.40;6.05;;;-0.10;99.90;;;;;;5099151;28;20036;-69
2022/03/09 05:13:04;;;;;;;11.30;6.20;;;-0.10;99.90;;;;;;5089296;28;20052;-68
2022/03/09 05:15:30;;;;;;;10.57;6.32;;;-0.90;99.90;;;;;;5088472;28;20119;-69
2022/03/09 05:17:56;;;;;;;13.05;6.07;;;-0.10;99.90;;;;;;5101586;28;20036;-68
2022/03/09 05:20:23;;;;;;;11.48;6.30;;;-0.10;99.90;;;;;;5076711;28;20062;-68
2022/03/09 05:22:50;;;;;;;11.73;5.63;;;0.10;99.90;;;;;;5099263;28;20039;-69
2022/03/09 05:25:16;;;;;;;11.32;6.15;;;-0.10;99.90;;;;;;5107623;28;20051;-68
2022/03/09 05:27:42;;;;;;;11.23;5.78;;;0.70;99.90;;;;;;5081038;28;20040;-68
2022/03/09 05:30:11;;;;;;;12.00;6.40;;;-0.10;99.90;;;;;;5078063;28;20083;-69
2022/03/09 05:32:38;;;;;;;11.80;6.22;;;-0.20;99.90;;;;;;5081194;28;20047;-68
2022/03/09 05:35:05;;;;;;;12.27;6.10;;;-0.20;99.90;;;;;;5089122;28;20063;-68
2022/03/09 05:37:39;;;;;;;10.63;5.88;;;-0.20;99.90;;;;;;5066628;28;20040;-69
2022/03/09 05:40:06;;;;;;;14.00;6.10;;;-0.20;99.90;;;;;;5080445;28;20109;-68
2022/03/09 05:42:33;;;;;;;13.73;6.13;;;-0.20;99.90;;;;;;5096283;28;20071;-68
2022/03/09 05:44:58;;;;;;;11.82;6.50;;;-0.20;99.90;;;;;;5080684;28;20122;-70
2022/03/09 05:47:24;;;;;;;11.65;6.47;;;-0.20;99.90;;;;;;5088945;28;20197;-69
2022/03/09 05:49:50;;;;;;;13.48;6.95;;;-0.20;99.90;;;;;;5061481;28;20051;-73
2022/03/09 05:52:16;;;;;;;11.77;7.00;;;-0.20;99.90;;;;;;5085217;28;20040;-68
2022/03/09 05:54:42;;;;;;;17.02;6.72;;;-0.30;99.90;;;;;;5107375;28;20533;-68
2022/03/09 05:57:08;;;;;;;11.50;6.57;;;-0.30;99.90;;;;;;5085641;28;20395;-68
2022/03/09 05:59:34;;;;;;;12.30;6.95;;;-0.40;99.90;;;;;;5096251;28;20429;-69
2022/03/09 06:02:00;;;;;;;12.65;5.97;;;-0.30;99.90;;;;;;5075130;28;20442;-68
2022/03/09 06:04:26;;;;;;;13.18;6.53;;;-0.40;99.90;;;;;;5069214;28;20036;-68
2022/03/09 06:06:52;;;;;;;11.05;5.75;;;-0.20;99.90;;;;;;5057118;28;20036;-68
2022/03/09 06:09:18;;;;;;;14.88;6.45;;;-0.20;99.90;;;;;;5062602;28;20083;-68
2022/03/09 06:11:43;;;;;;;11.38;6.55;;;-0.10;99.90;;;;;;5081760;28;20036;-68
2022/03/09 06:14:09;;;;;;;12.63;6.65;;;0.20;99.90;;;;;;5059428;28;20477;-68
2022/03/09 06:16:36;;;;;;;13.13;6.65;;;0.00;99.90;;;;;;5095508;28;20047;-68
2022/03/09 06:19:02;;;;;;;13.35;6.38;;;0.00;99.90;;;;;;5096366;28;20043;-69
2022/03/09 06:21:28;;;;;;;16.13;6.25;;;0.10;99.90;;;;;;5103436;28;20046;-69
2022/03/09 06:23:54;;;;;;;11.38;6.10;;;0.10;99.90;;;;;;5073479;28;20090;-68
2022/03/09 06:26:20;;;;;;;12.38;6.82;;;0.00;99.90;;;;;;5085367;28;20055;-68
2022/03/09 06:28:45;;;;;;;14.95;6.65;;;0.10;99.90;;;;;;5064194;28;20060;-68
2022/03/09 06:31:11;;;;;;;13.73;6.90;;;0.10;99.90;;;;;;5065344;28;20129;-70
2022/03/09 06:33:37;;;;;;;12.65;6.90;;;0.10;99.90;;;;;;5070401;28;20039;-68
2022/03/09 06:36:06;;;;;;;13.13;6.55;;;0.20;99.90;;;;;;5099965;28;20052;-69
2022/03/09 06:38:33;;;;;;;10.98;6.45;;;0.30;99.90;;;;;;5097592;28;20502;-69
2022/03/09 06:40:59;;;;;;;15.95;6.82;;;0.30;99.90;;;;;;5062640;28;20044;-69
2022/03/09 06:43:25;;;;;;;12.82;6.55;;;0.40;99.90;;;;;;5097948;28;20044;-69
2022/03/09 06:45:51;;;;;;;13.05;6.57;;;0.50;99.90;;;;;;5107618;28;20031;-69
2022/03/09 06:48:17;;;;;;;15.38;7.40;;;0.50;99.90;;;;;;5043658;28;20056;-68
2022/03/09 06:50:43;;;;;;;13.05;6.32;;;0.50;99.90;;;;;;5071686;28;20044;-68
2022/03/09 06:53:10;;;;;;;16.90;7.50;;;0.50;99.90;;;;;;5083409;28;20376;-69
2022/03/09 06:55:36;;;;;;;14.70;6.95;;;0.60;99.90;;;;;;5103260;28;20089;-70
2022/03/09 06:58:03;;;;;;;18.42;7.18;;;0.70;99.90;;;;;;5097071;28;20128;-69
2022/03/09 07:00:29;;;;;;;14.38;5.90;;;0.80;99.90;;;;;;5091608;28;20044;-69
2022/03/09 07:02:56;;;;;;;14.27;6.97;;;0.90;99.90;;;;;;5064847;28;20138;-71
2022/03/09 07:05:23;;;;;;;15.85;6.90;;;1.10;99.90;;;;;;5067232;28;20036;-72
2022/03/09 07:07:49;;;;;;;15.65;7.15;;;1.10;99.90;;;;;;5106352;28;20051;-69
2022/03/09 07:10:15;;;;;;;12.20;6.50;;;1.40;99.90;;;;;;5071162;28;20052;-70
2022/03/09 07:12:44;;;;;;;13.82;7.50;;;1.30;99.90;;;;;;5070730;28;20047;-70
2022/03/09 07:15:10;;;;;;;13.25;6.32;;;1.40;99.90;;;;;;5080341;28;20039;-70
2022/03/09 07:17:37;;;;;;;14.95;7.05;;;1.50;99.90;;;;;;5081434;28;20035;-70
2022/03/09 07:20:04;;;;;;;20.20;7.07;;;1.70;99.90;;;;;;5086434;28;20488;-71
2022/03/09 07:22:30;;;;;;;11.80;5.97;;;1.80;99.90;;;;;;5079433;28;20043;-70
2022/03/09 07:24:56;;;;;;;16.70;6.90;;;2.00;99.90;;;;;;5080229;28;20066;-70
2022/03/09 07:27:22;;;;;;;11.18;6.10;;;2.10;99.90;;;;;;5102286;28;20108;-70
2022/03/09 07:29:48;;;;;;;15.00;6.85;;;2.20;99.90;;;;;;5074095;28;20059;-71
2022/03/09 07:32:15;;;;;;;13.77;6.35;;;2.30;99.90;;;;;;5088199;28;20040;-70
2022/03/09 07:34:42;;;;;;;14.52;6.40;;;2.50;99.90;;;;;;5093311;28;20132;-70
2022/03/09 07:37:08;;;;;;;11.40;5.70;;;2.60;99.90;;;;;;5090558;28;20055;-70
2022/03/09 07:39:35;;;;;;;11.75;6.47;;;2.70;99.90;;;;;;5074019;28;20498;-71
2022/03/09 07:42:01;;;;;;;11.85;6.53;;;2.80;99.90;;;;;;5056515;28;20051;-71
2022/03/09 07:44:27;;;;;;;12.25;6.18;;;3.00;99.90;;;;;;5059408;28;20044;-71
2022/03/09 07:46:54;;;;;;;13.90;6.93;;;3.10;99.90;;;;;;5105799;28;20048;-68
2022/03/09 07:53:14;;;;;;;12.20;5.85;;;3.40;99.90;;;;;;5054492;22;20084;-67
2022/03/09 07:55:40;;;;;;;15.25;6.45;;;3.60;99.90;;;;;;5070718;28;20076;-67
2022/03/09 07:58:06;;;;;;;12.30;6.40;;;3.70;99.90;;;;;;5053880;28;20115;-67
2022/03/09 08:00:32;;;;;;;12.15;6.43;;;3.80;99.90;;;;;;5070883;28;20051;-67
2022/03/09 08:02:57;;;;;;;11.02;6.45;;;4.00;99.90;;;;;;5050916;28;20439;-67
2022/03/09 08:05:23;;;;;;;9.98;6.15;;;4.10;99.90;;;;;;5049873;28;20048;-67
2022/03/09 08:07:49;;;;;;;12.20;6.45;;;4.20;99.90;;;;;;5051147;28;20468;-67
2022/03/09 08:10:15;;;;;;;10.98;5.93;;;4.30;99.90;;;;;;5023158;28;20052;-68
2022/03/09 08:12:41;;;;;;;10.75;5.93;;;4.40;99.90;;;;;;5047710;28;20087;-68
2022/03/09 08:15:07;;;;;;;12.98;6.25;;;4.60;99.90;;;;;;5033952;28;20037;-69
2022/03/09 08:17:33;;;;;;;13.10;6.82;;;4.70;99.90;;;;;;5033675;28;20036;-71
2022/03/09 08:19:59;;;;;;;10.70;6.50;;;4.80;99.90;;;;;;5033927;28;20440;-68
2022/03/09 08:22:26;;;;;;;13.00;6.35;;;4.80;99.90;;;;;;5065774;28;20044;-69
2022/03/09 08:24:52;;;;;;;11.27;6.45;;;4.90;99.90;;;;;;5066718;28;20501;-69
2022/03/09 08:27:17;;;;;;;15.98;6.47;;;5.00;99.90;;;;;;5051181;28;20049;-69
2022/03/09 08:29:43;;;;;;;10.82;6.50;;;5.20;99.90;;;;;;5051264;28;20546;-68
2022/03/09 08:32:10;;;;;;;11.40;6.40;;;5.40;99.90;;;;;;5066543;28;20048;-68
2022/03/09 08:34:36;;;;;;;12.27;6.07;;;5.50;99.90;;;;;;5048464;28;20041;-68
2022/03/09 08:37:02;;;;;;;11.50;6.45;;;5.50;99.90;;;;;;5048354;28;20052;-68
2022/03/09 08:39:28;;;;;;;11.35;6.13;;;5.60;99.90;;;;;;5032768;28;20048;-68
2022/03/09 08:41:53;;;;;;;12.18;6.45;;;5.70;99.90;;;;;;5038967;28;20053;-69
2022/03/09 08:44:20;;;;;;;9.25;6.13;;;5.90;99.90;;;;;;5034022;28;20037;-69
2022/03/09 08:46:46;;;;;;;14.23;6.63;;;6.00;99.90;;;;;;5048301;28;20186;-68
2022/03/09 08:49:12;;;;;;;13.77;6.70;;;6.20;99.90;;;;;;5070353;28;20044;-68
2022/03/09 08:51:38;;;;;;;10.63;6.10;;;6.40;99.90;;;;;;5048030;28;20381;-68
2022/03/09 08:54:04;;;;;;;13.70;6.28;;;6.40;99.90;;;;;;5048349;28;20393;-70
2022/03/09 08:56:30;;;;;;;12.05;6.72;;;6.50;93.70;;;;;;5063125;28;20120;-68
2022/03/09 08:58:56;;;;;;;13.45;6.10;;;6.60;85.10;;;;;;5066553;28;20044;-68
2022/03/09 09:01:23;;;;;;;14.13;5.78;;;6.80;92.50;;;;;;5051228;28;20044;-69
2022/03/09 09:03:49;;;;;;;11.68;6.72;;;7.00;90.50;;;;;;5047997;28;20048;-69
2022/03/09 09:06:15;;;;;;;11.25;6.03;;;7.00;83.90;;;;;;5045644;28;20769;-69
2022/03/09 09:08:41;;;;;;;10.52;6.10;;;7.10;80.40;;;;;;5042696;28;20542;-68
2022/03/09 09:11:07;;;;;;;12.68;6.43;;;7.10;81.70;;;;;;5067912;28;20102;-68
2022/03/09 09:13:34;;;;;;;12.68;7.05;;;7.20;83.20;;;;;;5052809;28;20041;-70
2022/03/09 09:16:00;;;;;;;9.38;5.93;;;7.30;80.80;;;;;;5017061;28;20405;-69
2022/03/09 09:18:26;;;;;;;11.63;6.47;;;7.40;81.20;;;;;;5074160;28;20049;-68
2022/03/09 09:20:53;;;;;;;11.70;6.40;;;7.50;83.90;;;;;;5048567;28;20048;-68
2022/03/09 09:23:20;;;;;;;13.30;7.07;;;7.70;81.10;;;;;;5025512;28;20132;-68
2022/03/09 09:25:47;;;;;;;13.68;6.75;;;7.80;81.60;;;;;;5050843;28;20037;-71
2022/03/09 09:28:14;;;;;;;8.85;5.97;;;7.90;78.40;;;;;;5051329;28;20121;-77
2022/03/09 09:30:40;;;;;;;11.15;6.68;;;7.90;75.00;;;;;;5069361;28;20048;-72
2022/03/09 09:33:06;;;;;;;14.52;7.10;;;8.00;74.60;;;;;;5053068;28;20049;-69
2022/03/09 09:35:32;;;;;;;14.48;7.03;;;8.10;79.80;;;;;;5052812;28;20049;-73
2022/03/09 09:38:06;;;;;;;10.25;6.45;;;8.20;74.00;;;;;;5069282;28;20121;-72
2022/03/09 09:40:41;;;;;;;10.80;6.32;;;8.30;76.60;;;;;;5051496;28;20132;-74
2022/03/09 09:43:12;;;;;;;13.13;6.80;;;8.40;72.80;;;;;;5041166;28;20034;-76
2022/03/09 09:45:38;;;;;;;11.98;6.10;;;8.50;75.40;;;;;;5049035;28;20045;-71
2022/03/09 09:48:06;;;;;;;10.38;6.70;;;8.60;70.50;;;;;;5050142;28;20106;-72
2022/03/09 09:50:33;;;;;;;10.73;6.28;;;8.70;69.50;;;;;;5023200;28;20078;-71
2022/03/09 09:53:02;;;;;;;10.68;6.07;;;8.70;69.30;;;;;;5035063;28;20044;-71
2022/03/09 09:55:28;;;;;;;10.82;6.07;;;8.70;67.50;;;;;;5048645;28;20095;-72
2022/03/09 09:57:55;;;;;;;12.52;6.03;;;8.80;68.90;;;;;;5033305;28;20131;-71
2022/03/09 10:00:22;;;;;;;11.45;6.70;;;8.80;65.70;;;;;;5056861;28;20376;-71
2022/03/09 10:02:48;;;;;;;13.05;6.50;;;8.90;66.10;;;;;;5052016;28;20507;-71
2022/03/09 10:05:16;;;;;;;15.35;6.47;;;8.90;64.50;;;;;;5068952;28;20385;-71
2022/03/09 10:08:04;;;;;;;11.25;6.65;;;8.90;63.60;;;;;;5052858;28;20094;-71
2022/03/09 10:10:42;;;;;;;13.13;6.35;;;9.00;63.40;;;;;;5052302;28;20159;-71
2022/03/09 10:13:21;;;;;;;12.18;6.68;;;9.30;68.60;;;;;;5035636;28;20049;-72
2022/03/09 10:16:07;;;;;;;11.43;7.03;;;9.50;66.10;;;;;;5069680;28;20112;-71
2022/03/09 10:18:33;;;;;;;9.73;6.03;;;9.60;65.10;;;;;;5033312;28;20389;-70
2022/03/09 10:21:20;;;;;;;14.32;6.60;;;9.60;64.40;;;;;;5028296;28;20037;-71
2022/03/09 10:24:05;;;;;;;12.02;6.68;;;9.80;65.30;;;;;;5040544;28;20051;-70
2022/03/09 10:26:34;;;;;;;9.15;6.45;;;10.00;63.70;;;;;;5041604;28;20087;-71
2022/03/09 10:29:04;;;;;;;10.75;6.40;;;9.90;62.70;;;;;;5068946;28;20061;-71
2022/03/09 10:31:38;;;;;;;10.80;6.65;;;9.80;61.30;;;;;;5050278;28;20037;-71
2022/03/09 10:34:16;;;;;;;14.07;7.60;;;10.00;65.30;;;;;;5030793;28;20049;-73
2022/03/09 10:37:02;;;;;;;11.75;6.78;;;10.30;63.30;;;;;;5031781;28;20102;-73
2022/03/09 10:39:30;;;;;;;12.82;7.28;;;10.30;62.60;;;;;;5031759;28;20105;-78
2022/03/09 10:42:01;;;;;;;10.20;6.75;;;10.60;62.90;;;;;;5017573;28;20122;-67
2022/03/09 10:44:45;;;;;;;10.10;6.82;;;10.60;60.20;;;;;;5046275;28;20090;-68
2022/03/09 10:47:12;;;;;;;11.98;7.18;;;10.50;57.80;;;;;;5049762;28;20385;-68
2022/03/09 10:49:39;;;;;;;10.27;6.47;;;10.50;59.00;;;;;;5067312;28;20488;-67
2022/03/09 10:52:05;;;;;;;13.25;7.80;;;10.60;59.30;;;;;;5070237;28;20122;-68
2022/03/09 10:54:35;;;;;;;12.00;7.07;;;10.70;59.10;;;;;;5048229;28;20045;-68
2022/03/09 10:57:07;;;;;;;12.32;7.03;;;10.80;58.50;;;;;;5049278;28;20106;-67
2022/03/09 10:59:51;;;;;;;11.40;7.43;;;10.90;58.40;;;;;;5051191;28;20041;-68
2022/03/09 11:02:21;;;;;;;9.82;6.85;;;10.80;57.70;;;;;;5049975;28;20041;-67
2022/03/09 11:05:08;;;;;;;12.05;7.32;;;10.90;55.90;;;;;;5067984;28;20513;-68
2022/03/09 11:07:36;;;;;;;11.68;7.38;;;11.00;56.40;;;;;;5049444;28;20049;-68
2022/03/09 11:10:04;;;;;;;12.85;7.65;;;11.10;57.90;;;;;;5063561;28;20037;-67
2022/03/09 11:12:30;;;;;;;11.68;7.63;;;11.20;57.00;;;;;;5051120;28;20427;-68
2022/03/09 11:14:57;;;;;;;11.30;7.28;;;11.30;56.60;;;;;;5057642;28;20044;-68
2022/03/09 11:17:24;;;;;;;12.02;7.47;;;11.40;58.30;;;;;;5059582;28;20488;-68
2022/03/09 11:19:50;;;;;;;12.02;6.97;;;11.40;58.20;;;;;;5050489;28;20044;-67
2022/03/09 11:22:16;;;;;;;12.15;7.40;;;11.40;57.20;;;;;;5041324;28;20481;-68
2022/03/09 11:24:43;;;;;;;11.52;7.18;;;11.50;58.20;;;;;;5026482;28;20041;-69
2022/03/09 11:27:10;;;;;;;10.65;7.07;;;11.50;56.60;;;;;;5041038;28;20037;-71
2022/03/09 11:29:38;;;;;;;12.65;7.35;;;11.60;56.50;;;;;;5067908;28;20138;-72
2022/03/09 11:32:06;;;;;;;11.05;7.25;;;11.60;56.80;;;;;;5020629;28;20409;-69
2022/03/09 11:34:41;;;;;;;10.80;7.03;;;11.80;57.60;;;;;;5030587;28;20127;-67
2022/03/09 11:37:36;;;;;;;12.30;7.63;;;11.90;58.00;;;;;;5043609;28;20466;-67
2022/03/09 11:40:08;;;;;;;11.82;7.35;;;12.00;54.30;;;;;;5052303;28;20045;-68
2022/03/09 11:42:34;;;;;;;;;;;12.20;55.40;;;;;;5040592;28;20044;-68
2022/03/09 11:45:22;;;;;;;13.95;6.93;;;12.50;55.00;;;;;;5067584;28;20315;-69
2022/03/09 11:48:03;;;;;;;11.85;7.55;;;12.30;53.20;;;;;;5067800;28;20093;-68
2022/03/09 11:50:32;;;;;;;11.90;7.10;;;12.30;54.00;;;;;;5034406;28;20075;-67
2022/03/09 11:53:00;;;;;;;14.05;7.95;;;12.50;55.70;;;;;;5066344;28;20631;-68
2022/03/09 11:55:27;;;;;;;15.15;8.15;;;12.70;55.10;;;;;;5050961;28;20052;-68
2022/03/09 11:57:55;;;;;;;12.63;7.72;;;12.90;54.70;;;;;;5050829;28;20044;-67
2022/03/09 12:00:22;;;;;;;13.95;7.60;;;13.10;52.90;;;;;;5067827;28;20049;-67
2022/03/09 12:02:56;;;;;;;13.80;7.75;;;13.20;55.10;;;;;;5049391;28;20111;-67
2022/03/09 12:05:25;;;;;;;11.38;7.38;;;13.20;52.50;;;;;;5049267;28;20044;-67
2022/03/09 12:07:55;;;;;;;14.23;8.30;;;13.30;52.60;;;;;;5067456;28;20041;-67
2022/03/09 12:10:47;;;;;;;11.48;7.47;;;13.50;52.90;;;;;;5034363;28;20064;-67
2022/03/09 12:13:17;;;;;;;12.48;8.45;;;13.80;51.40;;;;;;5047305;28;20411;-68
2022/03/09 12:16:16;;;;;;;12.90;7.68;;;14.10;54.60;;;;;;5043647;28;20099;-68
2022/03/09 12:18:58;;;;;;;12.07;8.05;;;14.00;49.90;;;;;;5050543;28;20037;-68
2022/03/09 12:21:27;;;;;;;;;;;14.40;51.00;;;;;;5067254;28;20049;-70
2022/03/09 12:24:05;;;;;;;12.02;8.05;;;14.50;47.90;;;;;;5021009;28;19917;-68
2022/03/09 12:26:45;;;;;;;10.48;7.50;;;14.60;50.00;;;;;;5022635;28;20065;-68
2022/03/09 12:29:24;;;;;;;12.40;7.80;;;14.40;47.80;;;;;;5067127;28;20041;-68
2022/03/09 12:31:58;;;;;;;11.07;7.72;;;14.90;50.10;;;;;;5067149;28;20079;-69
2022/03/09 12:34:26;;;;;;;11.07;7.97;;;15.40;50.80;;;;;;5049513;28;20045;-69
2022/03/09 12:36:52;;;;;;;12.30;7.82;;;15.50;52.10;;;;;;5065438;28;20381;-68
2022/03/09 12:39:18;;;;;;;12.80;8.05;;;15.40;51.10;;;;;;5011074;28;20530;-69
2022/03/09 12:41:50;;;;;;;10.65;7.68;;;15.80;51.60;;;;;;5070193;28;20041;-68
2022/03/09 12:44:17;;;;;;;10.80;7.75;;;16.00;51.40;;;;;;5067959;28;20049;-69
2022/03/09 12:46:49;;;;;;;12.13;8.57;;;16.50;50.90;;;;;;5053645;28;20358;-69
2022/03/09 12:49:22;;;;;;;11.77;8.50;;;16.30;47.40;;;;;;5054165;28;20052;-69
2022/03/09 12:51:53;;;;;;;11.30;8.13;;;16.20;47.20;;;;;;5070499;28;20048;-69
2022/03/09 12:54:38;;;;;;;10.13;8.00;;;16.40;47.10;;;;;;5070185;28;20131;-69